sensor_id;sensor_type;location;lat;lon;timestamp;pressure;altitude;pressure_sealevel;temperature;humidity
9261;BME280;4667;42.726;23.252;2023-02-13T00:00:30;96981.69;;;0.24;nan
9261;BME280;4667;42.726;23.252;2023-02-13T00:02:58;96981.69;;;0.29;nan
9261;BME280;4667;42.726;23.252;2023-02-13T00:05:25;96986.09;;;0.44;nan
9261;BME280;4667;42.726;23.252;2023-02-13T00:07:53;96989.19;;;0.56;nan
9261;BME280;4667;42.726;23.252;2023-02-13T00:10:20;96984.72;;;0.52;nan
9261;BME280;4667;42.726;23.252;2023-02-13T00:12:47;96980.97;;;0.53;nan
9261;BME280;4667;42.726;23.252;2023-02-13T00:15:14;96989.78;;;0.48;nan
9261;BME280;4667;42.726;23.252;2023-02-13T00:17:40;96983.06;;;0.56;nan
9261;BME280;4667;42.726;23.252;2023-02-13T00:20:10;96992.22;;;0.45;nan
9261;BME280;4667;42.726;23.252;2023-02-13T00:22:38;96988.78;;;0.73;nan
9261;BME280;4667;42.726;23.252;2023-02-13T00:25:07;96986.25;;;0.87;nan
9261;BME280;4667;42.726;23.252;2023-02-13T00:27:34;96983.00;;;0.95;nan
9261;BME280;4667;42.726;23.252;2023-02-13T00:30:01;96985.59;;;1.00;nan
9261;BME280;4667;42.726;23.252;2023-02-13T00:32:28;96983.22;;;0.98;nan
9261;BME280;4667;42.726;23.252;2023-02-13T00:34:56;96986.34;;;1.05;nan
9261;BME280;4667;42.726;23.252;2023-02-13T00:37:23;96994.25;;;0.87;nan
9261;BME280;4667;42.726;23.252;2023-02-13T00:39:51;96992.44;;;1.11;nan
9261;BME280;4667;42.726;23.252;2023-02-13T00:42:19;96986.03;;;1.12;nan
9261;BME280;4667;42.726;23.252;2023-02-13T00:44:48;96994.09;;;1.02;nan
9261;BME280;4667;42.726;23.252;2023-02-13T00:47:15;97001.50;;;1.10;nan
9261;BME280;4667;42.726;23.252;2023-02-13T00:49:45;96993.38;;;1.20;nan
9261;BME280;4667;42.726;23.252;2023-02-13T00:52:11;96994.75;;;1.17;nan
9261;BME280;4667;42.726;23.252;2023-02-13T00:54:38;96997.66;;;1.21;nan
9261;BME280;4667;42.726;23.252;2023-02-13T00:57:05;96999.78;;;1.24;nan
9261;BME280;4667;42.726;23.252;2023-02-13T01:02:35;97005.59;;;1.26;nan
9261;BME280;4667;42.726;23.252;2023-02-13T01:05:06;97013.56;;;1.31;nan
9261;BME280;4667;42.726;23.252;2023-02-13T01:07:40;97005.78;;;1.11;nan
9261;BME280;4667;42.726;23.252;2023-02-13T01:10:11;96998.69;;;1.01;nan
9261;BME280;4667;42.726;23.252;2023-02-13T01:12:38;97006.31;;;1.08;nan
9261;BME280;4667;42.726;23.252;2023-02-13T01:15:07;96998.84;;;1.10;nan
9261;BME280;4667;42.726;23.252;2023-02-13T01:17:34;96999.84;;;1.14;nan
9261;BME280;4667;42.726;23.252;2023-02-13T01:20:00;96999.91;;;1.09;nan
9261;BME280;4667;42.726;23.252;2023-02-13T01:22:27;97003.03;;;1.16;nan
9261;BME280;4667;42.726;23.252;2023-02-13T01:24:54;97008.59;;;1.19;nan
9261;BME280;4667;42.726;23.252;2023-02-13T01:27:21;97006.50;;;1.16;nan
9261;BME280;4667;42.726;23.252;2023-02-13T01:29:48;96998.28;;;1.13;nan
9261;BME280;4667;42.726;23.252;2023-02-13T01:32:16;97004.19;;;1.10;nan
9261;BME280;4667;42.726;23.252;2023-02-13T01:34:43;96999.41;;;1.07;nan
9261;BME280;4667;42.726;23.252;2023-02-13T01:37:09;97009.19;;;1.16;nan
9261;BME280;4667;42.726;23.252;2023-02-13T01:39:36;97008.84;;;1.23;nan
9261;BME280;4667;42.726;23.252;2023-02-13T01:42:04;97017.38;;;1.25;nan
9261;BME280;4667;42.726;23.252;2023-02-13T01:44:49;97015.19;;;1.03;nan
9261;BME280;4667;42.726;23.252;2023-02-13T01:47:23;97016.34;;;1.21;nan
9261;BME280;4667;42.726;23.252;2023-02-13T01:49:58;97017.31;;;1.30;nan
9261;BME280;4667;42.726;23.252;2023-02-13T01:52:27;97015.22;;;1.27;nan
9261;BME280;4667;42.726;23.252;2023-02-13T01:54:55;97023.28;;;1.22;nan
9261;BME280;4667;42.726;23.252;2023-02-13T01:57:24;97025.34;;;1.30;nan
9261;BME280;4667;42.726;23.252;2023-02-13T01:59:56;97034.47;;;1.24;nan
9261;BME280;4667;42.726;23.252;2023-02-13T02:02:26;97022.13;;;1.28;nan
9261;BME280;4667;42.726;23.252;2023-02-13T02:04:55;97025.53;;;1.10;nan
9261;BME280;4667;42.726;23.252;2023-02-13T02:07:25;97018.50;;;0.90;nan
9261;BME280;4667;42.726;23.252;2023-02-13T02:09:55;97021.50;;;0.83;nan
9261;BME280;4667;42.726;23.252;2023-02-13T02:12:28;97012.19;;;0.81;nan
9261;BME280;4667;42.726;23.252;2023-02-13T02:14:59;97010.13;;;0.73;nan
9261;BME280;4667;42.726;23.252;2023-02-13T02:17:28;97014.34;;;0.79;nan
9261;BME280;4667;42.726;23.252;2023-02-13T02:20:03;97024.88;;;0.60;nan
9261;BME280;4667;42.726;23.252;2023-02-13T02:23:06;97017.19;;;0.54;nan
9261;BME280;4667;42.726;23.252;2023-02-13T02:26:09;97025.03;;;0.74;nan
9261;BME280;4667;42.726;23.252;2023-02-13T02:29:08;97016.25;;;0.73;nan
9261;BME280;4667;42.726;23.252;2023-02-13T02:34:53;97019.72;;;0.74;nan
9261;BME280;4667;42.726;23.252;2023-02-13T02:37:43;97026.91;;;0.73;nan
9261;BME280;4667;42.726;23.252;2023-02-13T02:40:23;97032.25;;;0.73;nan
9261;BME280;4667;42.726;23.252;2023-02-13T02:42:59;97031.72;;;0.76;nan
9261;BME280;4667;42.726;23.252;2023-02-13T02:45:35;97025.00;;;0.79;nan
9261;BME280;4667;42.726;23.252;2023-02-13T02:48:08;97033.47;;;0.86;nan
9261;BME280;4667;42.726;23.252;2023-02-13T02:50:59;97043.94;;;0.82;nan
9261;BME280;4667;42.726;23.252;2023-02-13T02:53:31;97038.75;;;0.62;nan
9261;BME280;4667;42.726;23.252;2023-02-13T02:56:07;97042.59;;;0.46;nan
9261;BME280;4667;42.726;23.252;2023-02-13T02:58:38;97047.25;;;0.25;nan
9261;BME280;4667;42.726;23.252;2023-02-13T03:01:27;97040.81;;;0.31;nan
9261;BME280;4667;42.726;23.252;2023-02-13T03:04:17;97043.00;;;0.24;nan
9261;BME280;4667;42.726;23.252;2023-02-13T03:07:17;97032.63;;;0.23;nan
9261;BME280;4667;42.726;23.252;2023-02-13T03:09:47;97039.66;;;0.04;nan
9261;BME280;4667;42.726;23.252;2023-02-13T03:12:38;97039.13;;;0.02;nan
9261;BME280;4667;42.726;23.252;2023-02-13T03:15:25;97036.47;;;0.02;nan
9261;BME280;4667;42.726;23.252;2023-02-13T03:17:53;97035.44;;;-0.03;nan
9261;BME280;4667;42.726;23.252;2023-02-13T03:20:43;97044.44;;;0.07;nan
9261;BME280;4667;42.726;23.252;2023-02-13T03:23:37;97041.88;;;-0.14;nan
9261;BME280;4667;42.726;23.252;2023-02-13T03:26:24;97053.00;;;-0.02;nan
9261;BME280;4667;42.726;23.252;2023-02-13T03:29:06;97042.03;;;0.10;nan
9261;BME280;4667;42.726;23.252;2023-02-13T03:32:02;97050.09;;;0.00;nan
9261;BME280;4667;42.726;23.252;2023-02-13T03:34:35;97048.66;;;0.13;nan
9261;BME280;4667;42.726;23.252;2023-02-13T03:37:22;97048.19;;;0.06;nan
9261;BME280;4667;42.726;23.252;2023-02-13T03:40:15;97055.84;;;0.17;nan
9261;BME280;4667;42.726;23.252;2023-02-13T03:42:49;97050.75;;;0.21;nan
9261;BME280;4667;42.726;23.252;2023-02-13T03:45:21;97051.41;;;-0.03;nan
9261;BME280;4667;42.726;23.252;2023-02-13T03:48:08;97046.16;;;-0.18;nan
9261;BME280;4667;42.726;23.252;2023-02-13T03:50:56;97046.16;;;-0.13;nan
9261;BME280;4667;42.726;23.252;2023-02-13T03:53:23;97041.63;;;-0.22;nan
9261;BME280;4667;42.726;23.252;2023-02-13T03:56:09;97042.94;;;-0.15;nan
9261;BME280;4667;42.726;23.252;2023-02-13T03:58:56;97040.19;;;0.06;nan
9261;BME280;4667;42.726;23.252;2023-02-13T04:01:44;97039.44;;;0.00;nan
9261;BME280;4667;42.726;23.252;2023-02-13T04:04:20;97043.38;;;0.03;nan
9261;BME280;4667;42.726;23.252;2023-02-13T04:06:50;97051.59;;;0.16;nan
9261;BME280;4667;42.726;23.252;2023-02-13T04:09:21;97050.19;;;0.29;nan
9261;BME280;4667;42.726;23.252;2023-02-13T04:11:55;97053.06;;;0.32;nan
9261;BME280;4667;42.726;23.252;2023-02-13T04:14:26;97053.13;;;0.27;nan
9261;BME280;4667;42.726;23.252;2023-02-13T04:16:58;97056.81;;;0.31;nan
9261;BME280;4667;42.726;23.252;2023-02-13T04:19:28;97057.50;;;0.03;nan
9261;BME280;4667;42.726;23.252;2023-02-13T04:21:56;97050.31;;;0.04;nan
9261;BME280;4667;42.726;23.252;2023-02-13T04:24:25;97060.50;;;-0.09;nan
9261;BME280;4667;42.726;23.252;2023-02-13T04:26:58;97060.72;;;-0.05;nan
9261;BME280;4667;42.726;23.252;2023-02-13T04:29:25;97057.88;;;-0.14;nan
9261;BME280;4667;42.726;23.252;2023-02-13T04:31:52;97060.53;;;-0.24;nan
9261;BME280;4667;42.726;23.252;2023-02-13T04:34:20;97056.59;;;-0.26;nan
9261;BME280;4667;42.726;23.252;2023-02-13T04:36:47;97054.72;;;-0.26;nan
9261;BME280;4667;42.726;23.252;2023-02-13T04:39:17;97057.31;;;-0.16;nan
9261;BME280;4667;42.726;23.252;2023-02-13T04:41:50;97056.28;;;-0.20;nan
9261;BME280;4667;42.726;23.252;2023-02-13T04:44:21;97050.19;;;-0.25;nan
9261;BME280;4667;42.726;23.252;2023-02-13T04:46:48;97050.16;;;-0.20;nan
9261;BME280;4667;42.726;23.252;2023-02-13T04:49:17;97051.50;;;-0.23;nan
9261;BME280;4667;42.726;23.252;2023-02-13T04:51:43;97057.09;;;-0.29;nan
9261;BME280;4667;42.726;23.252;2023-02-13T04:54:10;97057.91;;;-0.29;nan
9261;BME280;4667;42.726;23.252;2023-02-13T04:56:37;97066.41;;;-0.22;nan
9261;BME280;4667;42.726;23.252;2023-02-13T04:59:04;97065.34;;;-0.21;nan
9261;BME280;4667;42.726;23.252;2023-02-13T05:01:35;97064.00;;;-0.23;nan
9261;BME280;4667;42.726;23.252;2023-02-13T05:04:02;97073.56;;;-0.17;nan
9261;BME280;4667;42.726;23.252;2023-02-13T05:06:29;97072.78;;;-0.13;nan
9261;BME280;4667;42.726;23.252;2023-02-13T05:08:57;97081.56;;;-0.17;nan
9261;BME280;4667;42.726;23.252;2023-02-13T05:11:24;97073.88;;;-0.29;nan
9261;BME280;4667;42.726;23.252;2023-02-13T05:13:51;97077.59;;;-0.20;nan
9261;BME280;4667;42.726;23.252;2023-02-13T05:16:18;97070.19;;;-0.33;nan
9261;BME280;4667;42.726;23.252;2023-02-13T05:18:46;97076.53;;;-0.24;nan
9261;BME280;4667;42.726;23.252;2023-02-13T05:21:13;97076.78;;;-0.20;nan
9261;BME280;4667;42.726;23.252;2023-02-13T05:23:57;97078.13;;;-0.23;nan
9261;BME280;4667;42.726;23.252;2023-02-13T05:26:24;97080.81;;;-0.33;nan
9261;BME280;4667;42.726;23.252;2023-02-13T05:28:51;97084.25;;;-0.22;nan
9261;BME280;4667;42.726;23.252;2023-02-13T05:31:35;97086.13;;;-0.28;nan
9261;BME280;4667;42.726;23.252;2023-02-13T05:34:04;97085.81;;;-0.11;nan
9261;BME280;4667;42.726;23.252;2023-02-13T05:36:30;97088.72;;;-0.08;nan
9261;BME280;4667;42.726;23.252;2023-02-13T05:38:57;97088.72;;;-0.08;nan
9261;BME280;4667;42.726;23.252;2023-02-13T05:41:24;97095.13;;;-0.09;nan
9261;BME280;4667;42.726;23.252;2023-02-13T05:43:51;97096.91;;;0.11;nan
9261;BME280;4667;42.726;23.252;2023-02-13T05:46:18;97096.59;;;0.23;nan
9261;BME280;4667;42.726;23.252;2023-02-13T05:48:45;97096.28;;;0.29;nan
9261;BME280;4667;42.726;23.252;2023-02-13T05:51:13;97101.56;;;0.39;nan
9261;BME280;4667;42.726;23.252;2023-02-13T05:53:40;97095.44;;;0.34;nan
9261;BME280;4667;42.726;23.252;2023-02-13T05:56:07;97105.47;;;0.52;nan
9261;BME280;4667;42.726;23.252;2023-02-13T05:58:34;97102.78;;;0.57;nan
9261;BME280;4667;42.726;23.252;2023-02-13T06:01:01;97106.00;;;0.49;nan
9261;BME280;4667;42.726;23.252;2023-02-13T06:03:29;97103.00;;;0.61;nan
9261;BME280;4667;42.726;23.252;2023-02-13T06:05:57;97104.56;;;0.67;nan
9261;BME280;4667;42.726;23.252;2023-02-13T06:08:26;97105.91;;;0.69;nan
9261;BME280;4667;42.726;23.252;2023-02-13T06:10:53;97114.16;;;0.68;nan
9261;BME280;4667;42.726;23.252;2023-02-13T06:13:20;97116.56;;;0.69;nan
9261;BME280;4667;42.726;23.252;2023-02-13T06:15:47;97117.66;;;0.63;nan
9261;BME280;4667;42.726;23.252;2023-02-13T06:18:15;97114.91;;;0.73;nan
9261;BME280;4667;42.726;23.252;2023-02-13T06:20:43;97112.75;;;0.80;nan
9261;BME280;4667;42.726;23.252;2023-02-13T06:23:12;97118.31;;;0.84;nan
9261;BME280;4667;42.726;23.252;2023-02-13T06:25:46;97118.00;;;0.91;nan
9261;BME280;4667;42.726;23.252;2023-02-13T06:28:12;97115.28;;;1.01;nan
9261;BME280;4667;42.726;23.252;2023-02-13T06:30:42;97128.56;;;1.06;nan
9261;BME280;4667;42.726;23.252;2023-02-13T06:33:11;97110.66;;;1.11;nan
9261;BME280;4667;42.726;23.252;2023-02-13T06:35:38;97119.63;;;1.20;nan
9261;BME280;4667;42.726;23.252;2023-02-13T06:38:04;97117.72;;;1.26;nan
9261;BME280;4667;42.726;23.252;2023-02-13T06:40:31;97128.97;;;1.23;nan
9261;BME280;4667;42.726;23.252;2023-02-13T06:43:04;97131.47;;;1.38;nan
9261;BME280;4667;42.726;23.252;2023-02-13T06:45:31;97130.09;;;1.46;nan
9261;BME280;4667;42.726;23.252;2023-02-13T06:47:58;97119.88;;;1.53;nan
9261;BME280;4667;42.726;23.252;2023-02-13T06:50:25;97130.31;;;1.49;nan
9261;BME280;4667;42.726;23.252;2023-02-13T06:52:52;97126.47;;;1.60;nan
9261;BME280;4667;42.726;23.252;2023-02-13T06:55:19;97121.91;;;1.61;nan
9261;BME280;4667;42.726;23.252;2023-02-13T06:57:59;97124.97;;;1.49;nan
9261;BME280;4667;42.726;23.252;2023-02-13T07:00:28;97130.13;;;1.70;nan
9261;BME280;4667;42.726;23.252;2023-02-13T07:03:00;97126.22;;;1.57;nan
9261;BME280;4667;42.726;23.252;2023-02-13T07:06:03;97128.16;;;1.51;nan
9261;BME280;4667;42.726;23.252;2023-02-13T07:08:30;97115.41;;;1.43;nan
9261;BME280;4667;42.726;23.252;2023-02-13T07:10:58;97126.69;;;1.64;nan
9261;BME280;4667;42.726;23.252;2023-02-13T07:13:28;97125.00;;;1.73;nan
9261;BME280;4667;42.726;23.252;2023-02-13T07:15:59;97121.81;;;1.47;nan
9261;BME280;4667;42.726;23.252;2023-02-13T07:18:26;97131.03;;;1.60;nan
9261;BME280;4667;42.726;23.252;2023-02-13T07:20:53;97118.88;;;1.73;nan
9261;BME280;4667;42.726;23.252;2023-02-13T07:23:23;97124.16;;;1.78;nan
9261;BME280;4667;42.726;23.252;2023-02-13T07:25:50;97128.44;;;1.79;nan
9261;BME280;4667;42.726;23.252;2023-02-13T07:28:16;97135.75;;;1.92;nan
9261;BME280;4667;42.726;23.252;2023-02-13T07:30:43;97127.72;;;1.92;nan
9261;BME280;4667;42.726;23.252;2023-02-13T07:33:12;97127.63;;;1.78;nan
9261;BME280;4667;42.726;23.252;2023-02-13T07:35:38;97134.66;;;1.93;nan
9261;BME280;4667;42.726;23.252;2023-02-13T07:38:06;97125.84;;;2.16;nan
9261;BME280;4667;42.726;23.252;2023-02-13T07:40:33;97122.03;;;2.22;nan
9261;BME280;4667;42.726;23.252;2023-02-13T07:43:00;97131.31;;;2.30;nan
9261;BME280;4667;42.726;23.252;2023-02-13T07:45:27;97127.09;;;2.24;nan
9261;BME280;4667;42.726;23.252;2023-02-13T07:47:55;97125.09;;;2.34;nan
9261;BME280;4667;42.726;23.252;2023-02-13T07:50:26;97120.69;;;2.43;nan
9261;BME280;4667;42.726;23.252;2023-02-13T07:53:02;97124.66;;;2.46;nan
9261;BME280;4667;42.726;23.252;2023-02-13T07:55:36;97129.13;;;2.51;nan
9261;BME280;4667;42.726;23.252;2023-02-13T07:58:12;97126.41;;;2.56;nan
9261;BME280;4667;42.726;23.252;2023-02-13T08:04:02;97136.53;;;2.59;nan
9261;BME280;4667;42.726;23.252;2023-02-13T08:06:37;97131.53;;;2.71;nan
9261;BME280;4667;42.726;23.252;2023-02-13T08:09:16;97123.59;;;2.66;nan
9261;BME280;4667;42.726;23.252;2023-02-13T08:12:01;97130.59;;;2.80;nan
9261;BME280;4667;42.726;23.252;2023-02-13T08:14:29;97129.06;;;2.74;nan
9261;BME280;4667;42.726;23.252;2023-02-13T08:17:01;97126.47;;;2.69;nan
9261;BME280;4667;42.726;23.252;2023-02-13T08:19:33;97123.53;;;2.71;nan
9261;BME280;4667;42.726;23.252;2023-02-13T08:22:02;97128.72;;;2.81;nan
9261;BME280;4667;42.726;23.252;2023-02-13T08:24:29;97135.75;;;2.96;nan
9261;BME280;4667;42.726;23.252;2023-02-13T08:26:56;97127.19;;;2.94;nan
9261;BME280;4667;42.726;23.252;2023-02-13T08:29:24;97122.19;;;2.87;nan
9261;BME280;4667;42.726;23.252;2023-02-13T08:31:51;97123.59;;;3.03;nan
9261;BME280;4667;42.726;23.252;2023-02-13T08:34:18;97128.44;;;3.01;nan
9261;BME280;4667;42.726;23.252;2023-02-13T08:36:45;97134.38;;;3.31;nan
9261;BME280;4667;42.726;23.252;2023-02-13T08:39:14;97120.69;;;3.32;nan
9261;BME280;4667;42.726;23.252;2023-02-13T08:41:41;97127.84;;;3.37;nan
9261;BME280;4667;42.726;23.252;2023-02-13T08:44:09;97122.78;;;3.35;nan
9261;BME280;4667;42.726;23.252;2023-02-13T08:46:49;97134.81;;;3.38;nan
9261;BME280;4667;42.726;23.252;2023-02-13T08:49:17;97122.88;;;3.30;nan
9261;BME280;4667;42.726;23.252;2023-02-13T08:51:44;97113.28;;;3.43;nan
9261;BME280;4667;42.726;23.252;2023-02-13T08:54:11;97119.28;;;3.21;nan
9261;BME280;4667;42.726;23.252;2023-02-13T08:56:40;97122.34;;;3.14;nan
9261;BME280;4667;42.726;23.252;2023-02-13T08:59:07;97118.06;;;3.13;nan
9261;BME280;4667;42.726;23.252;2023-02-13T09:01:34;97117.75;;;3.34;nan
9261;BME280;4667;42.726;23.252;2023-02-13T09:04:01;97118.81;;;3.33;nan
9261;BME280;4667;42.726;23.252;2023-02-13T09:06:29;97128.19;;;3.49;nan
9261;BME280;4667;42.726;23.252;2023-02-13T09:08:57;97120.75;;;3.59;nan
9261;BME280;4667;42.726;23.252;2023-02-13T09:11:24;97111.44;;;3.70;nan
9261;BME280;4667;42.726;23.252;2023-02-13T09:13:53;97117.63;;;3.85;nan
9261;BME280;4667;42.726;23.252;2023-02-13T09:16:21;97123.03;;;3.66;nan
9261;BME280;4667;42.726;23.252;2023-02-13T09:18:51;97113.47;;;3.92;nan
9261;BME280;4667;42.726;23.252;2023-02-13T09:21:20;97117.59;;;4.12;nan
9261;BME280;4667;42.726;23.252;2023-02-13T09:23:48;97115.72;;;4.13;nan
9261;BME280;4667;42.726;23.252;2023-02-13T09:26:16;97113.34;;;4.25;nan
9261;BME280;4667;42.726;23.252;2023-02-13T09:28:46;97109.06;;;4.24;nan
9261;BME280;4667;42.726;23.252;2023-02-13T09:31:15;97101.91;;;4.46;nan
9261;BME280;4667;42.726;23.252;2023-02-13T09:33:43;97100.19;;;4.50;nan
9261;BME280;4667;42.726;23.252;2023-02-13T09:36:12;97103.56;;;4.56;nan
9261;BME280;4667;42.726;23.252;2023-02-13T09:38:40;97100.59;;;4.44;nan
9261;BME280;4667;42.726;23.252;2023-02-13T09:41:10;97096.56;;;4.69;nan
9261;BME280;4667;42.726;23.252;2023-02-13T09:43:43;97101.56;;;4.48;nan
9261;BME280;4667;42.726;23.252;2023-02-13T09:46:16;97091.22;;;4.55;nan
9261;BME280;4667;42.726;23.252;2023-02-13T09:48:48;97094.59;;;4.61;nan
9261;BME280;4667;42.726;23.252;2023-02-13T09:51:18;97084.63;;;4.97;nan
9261;BME280;4667;42.726;23.252;2023-02-13T09:53:51;97083.31;;;5.39;nan
9261;BME280;4667;42.726;23.252;2023-02-13T09:56:26;97066.94;;;5.18;nan
9261;BME280;4667;42.726;23.252;2023-02-13T09:59:02;97074.19;;;5.49;nan
9261;BME280;4667;42.726;23.252;2023-02-13T10:01:38;97068.66;;;5.76;nan
9261;BME280;4667;42.726;23.252;2023-02-13T10:04:31;97060.97;;;5.92;nan
9261;BME280;4667;42.726;23.252;2023-02-13T10:07:13;97062.91;;;6.08;nan
9261;BME280;4667;42.726;23.252;2023-02-13T10:09:51;97056.53;;;6.87;nan
9261;BME280;4667;42.726;23.252;2023-02-13T10:12:32;97049.63;;;7.50;nan
9261;BME280;4667;42.726;23.252;2023-02-13T10:15:15;97044.63;;;8.36;nan
9261;BME280;4667;42.726;23.252;2023-02-13T10:17:49;97034.78;;;9.15;nan
9261;BME280;4667;42.726;23.252;2023-02-13T10:20:26;97022.59;;;9.78;nan
9261;BME280;4667;42.726;23.252;2023-02-13T10:22:56;97031.75;;;9.86;nan
9261;BME280;4667;42.726;23.252;2023-02-13T10:25:28;97029.50;;;9.88;nan
9261;BME280;4667;42.726;23.252;2023-02-13T10:27:59;97010.69;;;10.28;nan
9261;BME280;4667;42.726;23.252;2023-02-13T10:30:31;97007.34;;;10.58;nan
9261;BME280;4667;42.726;23.252;2023-02-13T10:33:03;97010.44;;;11.13;nan
9261;BME280;4667;42.726;23.252;2023-02-13T10:35:51;97002.25;;;11.56;nan
9261;BME280;4667;42.726;23.252;2023-02-13T10:38:21;97007.00;;;11.43;nan
9261;BME280;4667;42.726;23.252;2023-02-13T10:41:21;96988.09;;;12.45;nan
9261;BME280;4667;42.726;23.252;2023-02-13T10:44:06;96988.81;;;11.91;nan
9261;BME280;4667;42.726;23.252;2023-02-13T10:46:45;96980.66;;;11.91;nan
9261;BME280;4667;42.726;23.252;2023-02-13T10:49:31;96975.38;;;12.14;nan
9261;BME280;4667;42.726;23.252;2023-02-13T10:52:13;96985.97;;;11.72;nan
9261;BME280;4667;42.726;23.252;2023-02-13T10:55:04;96971.78;;;12.45;nan
9261;BME280;4667;42.726;23.252;2023-02-13T10:57:49;96966.47;;;13.29;nan
9261;BME280;4667;42.726;23.252;2023-02-13T11:00:22;96968.47;;;12.93;nan
9261;BME280;4667;42.726;23.252;2023-02-13T11:02:50;96961.13;;;13.13;nan
9261;BME280;4667;42.726;23.252;2023-02-13T11:05:20;96953.78;;;13.36;nan
9261;BME280;4667;42.726;23.252;2023-02-13T11:07:48;96954.38;;;14.24;nan
9261;BME280;4667;42.726;23.252;2023-02-13T11:10:18;96943.59;;;14.58;nan
9261;BME280;4667;42.726;23.252;2023-02-13T11:12:45;96950.88;;;14.80;nan
9261;BME280;4667;42.726;23.252;2023-02-13T11:15:26;96939.41;;;14.67;nan
9261;BME280;4667;42.726;23.252;2023-02-13T11:17:55;96933.03;;;14.56;nan
9261;BME280;4667;42.726;23.252;2023-02-13T11:20:38;96927.03;;;14.44;nan
9261;BME280;4667;42.726;23.252;2023-02-13T11:23:22;96920.88;;;14.50;nan
9261;BME280;4667;42.726;23.252;2023-02-13T11:25:55;96919.31;;;13.93;nan
9261;BME280;4667;42.726;23.252;2023-02-13T11:28:22;96908.50;;;14.30;nan
9261;BME280;4667;42.726;23.252;2023-02-13T11:30:49;96909.69;;;14.03;nan
9261;BME280;4667;42.726;23.252;2023-02-13T11:33:22;96896.72;;;14.49;nan
9261;BME280;4667;42.726;23.252;2023-02-13T11:36:05;96897.28;;;14.05;nan
9261;BME280;4667;42.726;23.252;2023-02-13T11:38:32;96886.34;;;14.31;nan
9261;BME280;4667;42.726;23.252;2023-02-13T11:41:09;96891.03;;;14.98;nan
9261;BME280;4667;42.726;23.252;2023-02-13T11:43:43;96881.75;;;14.65;nan
9261;BME280;4667;42.726;23.252;2023-02-13T11:46:17;96882.00;;;14.57;nan
9261;BME280;4667;42.726;23.252;2023-02-13T11:48:55;96877.72;;;14.89;nan
9261;BME280;4667;42.726;23.252;2023-02-13T11:51:36;96877.63;;;15.19;nan
9261;BME280;4667;42.726;23.252;2023-02-13T11:54:04;96863.31;;;14.96;nan
9261;BME280;4667;42.726;23.252;2023-02-13T11:56:46;96867.91;;;14.85;nan
9261;BME280;4667;42.726;23.252;2023-02-13T11:59:16;96853.78;;;15.20;nan
9261;BME280;4667;42.726;23.252;2023-02-13T12:01:43;96852.00;;;15.34;nan
9261;BME280;4667;42.726;23.252;2023-02-13T12:04:15;96849.75;;;15.03;nan
9261;BME280;4667;42.726;23.252;2023-02-13T12:06:59;96848.34;;;15.64;nan
9261;BME280;4667;42.726;23.252;2023-02-13T12:09:27;96842.94;;;14.83;nan
9261;BME280;4667;42.726;23.252;2023-02-13T12:11:57;96840.75;;;14.99;nan
9261;BME280;4667;42.726;23.252;2023-02-13T12:14:29;96837.53;;;15.30;nan
9261;BME280;4667;42.726;23.252;2023-02-13T12:17:01;96834.84;;;15.88;nan
9261;BME280;4667;42.726;23.252;2023-02-13T12:19:35;96836.22;;;16.26;nan
9261;BME280;4667;42.726;23.252;2023-02-13T12:22:28;96828.34;;;16.18;nan
9261;BME280;4667;42.726;23.252;2023-02-13T12:25:21;96833.44;;;15.06;nan
9261;BME280;4667;42.726;23.252;2023-02-13T12:27:57;96830.81;;;15.21;nan
9261;BME280;4667;42.726;23.252;2023-02-13T12:30:51;96835.84;;;14.75;nan
9261;BME280;4667;42.726;23.252;2023-02-13T12:33:31;96826.63;;;14.90;nan
9261;BME280;4667;42.726;23.252;2023-02-13T12:36:10;96815.13;;;15.55;nan
9261;BME280;4667;42.726;23.252;2023-02-13T12:38:48;96819.22;;;15.31;nan
9261;BME280;4667;42.726;23.252;2023-02-13T12:41:19;96831.50;;;14.70;nan
9261;BME280;4667;42.726;23.252;2023-02-13T12:44:10;96824.03;;;15.51;nan
9261;BME280;4667;42.726;23.252;2023-02-13T12:46:51;96808.88;;;15.10;nan
9261;BME280;4667;42.726;23.252;2023-02-13T12:52:21;96805.09;;;15.73;nan
9261;BME280;4667;42.726;23.252;2023-02-13T12:55:02;96796.78;;;15.55;nan
9261;BME280;4667;42.726;23.252;2023-02-13T12:57:42;96792.09;;;15.08;nan
9261;BME280;4667;42.726;23.252;2023-02-13T13:00:23;96802.34;;;14.78;nan
9261;BME280;4667;42.726;23.252;2023-02-13T13:03:10;96790.97;;;15.60;nan
9261;BME280;4667;42.726;23.252;2023-02-13T13:05:55;96791.91;;;15.34;nan
9261;BME280;4667;42.726;23.252;2023-02-13T13:08:36;96781.06;;;15.45;nan
9261;BME280;4667;42.726;23.252;2023-02-13T13:11:17;96785.56;;;15.71;nan
9261;BME280;4667;42.726;23.252;2023-02-13T13:13:54;96778.34;;;16.21;nan
9261;BME280;4667;42.726;23.252;2023-02-13T13:16:29;96778.63;;;15.33;nan
9261;BME280;4667;42.726;23.252;2023-02-13T13:19:05;96782.72;;;15.57;nan
9261;BME280;4667;42.726;23.252;2023-02-13T13:21:42;96771.59;;;15.28;nan
9261;BME280;4667;42.726;23.252;2023-02-13T13:24:22;96767.25;;;15.82;nan
9261;BME280;4667;42.726;23.252;2023-02-13T13:26:56;96759.19;;;16.07;nan
9261;BME280;4667;42.726;23.252;2023-02-13T13:29:26;96768.06;;;15.82;nan
9261;BME280;4667;42.726;23.252;2023-02-13T13:31:56;96764.31;;;15.50;nan
9261;BME280;4667;42.726;23.252;2023-02-13T13:34:26;96767.19;;;15.13;nan
9261;BME280;4667;42.726;23.252;2023-02-13T13:36:58;96757.81;;;15.69;nan
9261;BME280;4667;42.726;23.252;2023-02-13T13:39:40;96761.28;;;15.62;nan
9261;BME280;4667;42.726;23.252;2023-02-13T13:42:15;96773.84;;;15.16;nan
9261;BME280;4667;42.726;23.252;2023-02-13T13:48:30;96761.13;;;14.90;nan
9261;BME280;4667;42.726;23.252;2023-02-13T13:51:01;96763.38;;;14.77;nan
9261;BME280;4667;42.726;23.252;2023-02-13T13:53:28;96762.47;;;14.62;nan
9261;BME280;4667;42.726;23.252;2023-02-13T13:56:06;96766.34;;;14.61;nan
9261;BME280;4667;42.726;23.252;2023-02-13T13:58:45;96766.44;;;14.35;nan
9261;BME280;4667;42.726;23.252;2023-02-13T14:01:22;96760.47;;;15.00;nan
9261;BME280;4667;42.726;23.252;2023-02-13T14:03:51;96757.25;;;14.91;nan
9261;BME280;4667;42.726;23.252;2023-02-13T14:06:22;96763.00;;;14.38;nan
9261;BME280;4667;42.726;23.252;2023-02-13T14:09:00;96753.84;;;14.60;nan
9261;BME280;4667;42.726;23.252;2023-02-13T14:11:32;96751.81;;;14.47;nan
9261;BME280;4667;42.726;23.252;2023-02-13T14:14:01;96742.91;;;13.86;nan
9261;BME280;4667;42.726;23.252;2023-02-13T14:16:40;96751.78;;;13.50;nan
9261;BME280;4667;42.726;23.252;2023-02-13T14:19:23;96748.38;;;13.30;nan
9261;BME280;4667;42.726;23.252;2023-02-13T14:21:55;96746.91;;;13.36;nan
9261;BME280;4667;42.726;23.252;2023-02-13T14:24:41;96744.66;;;13.42;nan
9261;BME280;4667;42.726;23.252;2023-02-13T14:27:19;96747.19;;;13.28;nan